Time;durP1;ratioP1;P1;durP2;ratioP2;P2;SDS_P1;SDS_P2;PMS_P1;PMS_P2;Temp;Humidity;BMP_temperature;BMP_pressure;BME280_temperature;BME280_humidity;BME280_pressure;Samples;Min_cycle;Max_cycle;Signal;HPM_P1;HPM_P2
2022/05/22 00:00:10;;;;;;;4.43;4.13;;;16.20;99.90;;;;;;5075760;28;20236;-70
2022/05/22 00:02:37;;;;;;;4.35;3.95;;;16.20;99.90;;;;;;5075521;28;20212;-69
2022/05/22 00:05:05;;;;;;;4.35;3.95;;;16.10;99.90;;;;;;5075774;28;20216;-70
2022/05/22 00:07:31;;;;;;;4.70;4.30;;;16.20;99.90;;;;;;5075710;28;20230;-70
2022/05/22 00:09:58;;;;;;;5.10;4.03;;;16.20;99.90;;;;;;5075475;28;20206;-70
2022/05/22 00:12:26;;;;;;;4.85;4.45;;;16.20;99.90;;;;;;5075390;28;20226;-71
2022/05/22 00:14:53;;;;;;;5.03;4.60;;;16.30;99.90;;;;;;5075588;28;20267;-70
2022/05/22 00:17:20;;;;;;;4.90;4.50;;;16.20;99.90;;;;;;5075227;28;20253;-70
2022/05/22 00:19:47;;;;;;;5.43;5.00;;;16.20;99.90;;;;;;5075267;28;20237;-70
2022/05/22 00:22:13;;;;;;;5.50;5.00;;;16.20;99.90;;;;;;5075302;28;20203;-70
2022/05/22 00:24:40;;;;;;;5.97;5.50;;;16.10;99.90;;;;;;5075418;28;20301;-70
2022/05/22 00:27:07;;;;;;;5.10;4.70;;;16.20;99.90;;;;;;5075148;28;20652;-70
2022/05/22 00:29:36;;;;;;;8.32;5.45;;;16.10;99.90;;;;;;5076053;28;20212;-70
2022/05/22 00:32:04;;;;;;;5.10;4.70;;;16.00;99.90;;;;;;5075119;28;20211;-70
2022/05/22 00:34:31;;;;;;;6.13;5.63;;;16.00;99.90;;;;;;5075198;28;20202;-70
2022/05/22 00:36:58;;;;;;;6.25;5.75;;;16.00;99.90;;;;;;5075162;28;20224;-70
2022/05/22 00:39:25;;;;;;;6.28;5.68;;;16.00;99.90;;;;;;5075131;28;20210;-70
2022/05/22 00:41:55;;;;;;;6.10;5.60;;;16.00;99.90;;;;;;5075077;28;20206;-70
2022/05/22 00:44:22;;;;;;;6.05;5.57;;;16.00;99.90;;;;;;5074781;28;20205;-70
2022/05/22 00:46:51;;;;;;;6.07;5.47;;;16.00;99.90;;;;;;5075081;28;20703;-70
2022/05/22 00:49:22;;;;;;;5.85;5.25;;;16.00;99.90;;;;;;5074911;28;20297;-70
2022/05/22 00:51:54;;;;;;;5.75;5.20;;;16.00;99.90;;;;;;5074755;28;20209;-70
2022/05/22 00:54:24;;;;;;;5.13;4.72;;;16.00;99.90;;;;;;5074327;28;20227;-70
2022/05/22 00:56:55;;;;;;;5.38;4.88;;;16.00;99.90;;;;;;5074684;28;20226;-71
2022/05/22 00:59:25;;;;;;;5.20;4.80;;;15.90;99.90;;;;;;5074294;28;20209;-70
2022/05/22 01:01:56;;;;;;;5.30;4.88;;;15.90;99.90;;;;;;5074687;28;20216;-70
2022/05/22 01:04:27;;;;;;;5.40;4.93;;;15.90;99.90;;;;;;5074499;28;20209;-70
2022/05/22 01:06:55;;;;;;;5.70;5.20;;;15.90;99.90;;;;;;5074531;28;20251;-70
2022/05/22 01:09:22;;;;;;;5.93;5.43;;;15.90;99.90;;;;;;5074189;28;20775;-70
2022/05/22 01:11:54;;;;;;;5.30;4.90;;;15.80;99.90;;;;;;5074923;28;20215;-70
2022/05/22 01:14:23;;;;;;;5.68;4.65;;;15.70;99.90;;;;;;5074754;28;20338;-70
2022/05/22 01:16:50;;;;;;;5.57;5.07;;;15.60;99.90;;;;;;5074012;28;20228;-70
2022/05/22 01:19:21;;;;;;;5.43;4.88;;;15.50;99.90;;;;;;5074380;28;20215;-70
2022/05/22 01:21:55;;;;;;;6.10;5.50;;;15.60;99.90;;;;;;5074220;28;20204;-71
2022/05/22 01:24:22;;;;;;;6.18;5.28;;;15.50;99.90;;;;;;5074110;28;20565;-70
2022/05/22 01:26:50;;;;;;;6.20;5.63;;;15.30;99.90;;;;;;5074141;28;20319;-70
2022/05/22 01:29:18;;;;;;;6.93;6.05;;;15.30;99.90;;;;;;5074162;28;20299;-70
2022/05/22 01:31:45;;;;;;;6.63;6.13;;;15.40;99.90;;;;;;5074078;28;20580;-70
2022/05/22 01:34:12;;;;;;;6.10;5.60;;;15.40;99.90;;;;;;5073785;28;20557;-70
2022/05/22 01:36:39;;;;;;;5.88;5.40;;;15.40;99.90;;;;;;5073704;28;20712;-71
2022/05/22 01:39:08;;;;;;;6.38;5.88;;;15.40;99.90;;;;;;5073731;28;20755;-70
2022/05/22 01:41:35;;;;;;;6.80;6.10;;;15.50;99.90;;;;;;5073976;28;20208;-70
2022/05/22 01:44:02;;;;;;;6.40;5.85;;;15.30;99.90;;;;;;5073923;28;20291;-70
2022/05/22 01:46:30;;;;;;;6.40;5.88;;;15.40;99.90;;;;;;5073802;28;20594;-70
2022/05/22 01:48:57;;;;;;;5.95;5.45;;;15.50;99.90;;;;;;5073913;28;20211;-70
2022/05/22 01:51:25;;;;;;;6.97;6.28;;;15.50;99.90;;;;;;5073627;28;20680;-70
2022/05/22 01:53:53;;;;;;;6.70;5.85;;;15.50;99.90;;;;;;5073488;28;20648;-70
2022/05/22 01:56:22;;;;;;;6.78;6.18;;;15.50;99.90;;;;;;5073664;28;20591;-70
2022/05/22 01:58:48;;;;;;;9.55;6.45;;;15.50;99.90;;;;;;5073522;28;20208;-70
2022/05/22 02:01:15;;;;;;;6.80;6.25;;;15.40;99.90;;;;;;5074221;28;20295;-70
2022/05/22 02:03:42;;;;;;;7.10;6.20;;;15.40;99.90;;;;;;5073316;28;20205;-70
2022/05/22 02:06:09;;;;;;;6.30;5.72;;;15.30;99.90;;;;;;5073694;28;20324;-70
2022/05/22 02:08:35;;;;;;;6.55;5.95;;;15.20;99.90;;;;;;5073632;28;20667;-70
2022/05/22 02:11:04;;;;;;;6.47;5.70;;;15.10;99.90;;;;;;5072965;28;20306;-70
2022/05/22 02:13:35;;;;;;;6.70;6.10;;;14.90;99.90;;;;;;5073112;28;20478;-70
2022/05/22 02:16:02;;;;;;;6.72;6.13;;;14.70;99.90;;;;;;5073624;28;20222;-70
2022/05/22 02:18:28;;;;;;;6.18;5.43;;;14.80;99.90;;;;;;5073665;28;20200;-70
2022/05/22 02:20:55;;;;;;;8.35;6.30;;;14.80;99.90;;;;;;5073542;28;20210;-70
2022/05/22 02:23:23;;;;;;;6.43;5.93;;;14.90;99.90;;;;;;5073334;28;20200;-70
2022/05/22 02:25:52;;;;;;;6.40;5.80;;;15.00;99.90;;;;;;5073401;28;20204;-70
2022/05/22 02:28:21;;;;;;;6.65;5.97;;;15.00;99.90;;;;;;5073498;28;20204;-70
2022/05/22 02:30:52;;;;;;;6.30;5.80;;;15.10;99.90;;;;;;5073150;28;20249;-70
2022/05/22 02:33:19;;;;;;;6.50;5.90;;;15.00;99.90;;;;;;5073159;28;20219;-70
2022/05/22 02:35:47;;;;;;;7.30;6.60;;;15.00;99.90;;;;;;5073316;28;20208;-70
2022/05/22 02:38:14;;;;;;;7.07;6.38;;;15.00;99.90;;;;;;5073399;28;20601;-70
2022/05/22 02:40:42;;;;;;;7.50;6.80;;;14.80;99.90;;;;;;5073313;28;20207;-70
2022/05/22 02:43:09;;;;;;;6.90;6.30;;;14.60;99.90;;;;;;5072926;28;20657;-70
2022/05/22 02:45:38;;;;;;;7.03;6.43;;;14.40;99.90;;;;;;5073270;28;20207;-70
2022/05/22 02:48:08;;;;;;;7.00;6.40;;;14.40;99.90;;;;;;5073631;28;20233;-70
2022/05/22 02:50:37;;;;;;;7.35;6.65;;;14.30;99.90;;;;;;5073174;28;20575;-70
2022/05/22 02:53:08;;;;;;;7.93;7.20;;;14.40;99.90;;;;;;5072675;28;20580;-71
2022/05/22 02:55:35;;;;;;;7.63;6.50;;;14.40;99.90;;;;;;5073020;28;20213;-70
2022/05/22 02:58:02;;;;;;;8.25;6.88;;;14.50;99.90;;;;;;5073058;28;20588;-70
2022/05/22 03:00:31;;;;;;;7.18;6.47;;;14.60;99.90;;;;;;5073064;28;20202;-70
2022/05/22 03:02:59;;;;;;;7.32;6.70;;;14.60;99.90;;;;;;5072846;28;20289;-70
2022/05/22 03:06:37;;;;;;;7.15;6.45;;;14.60;99.90;;;;;;5073081;28;20290;-70
2022/05/22 03:08:15;;;;;;;6.93;6.32;;;14.60;99.90;;;;;;5072644;28;20202;-70
2022/05/22 03:10:44;;;;;;;7.18;6.47;;;14.60;99.90;;;;;;5073062;28;20294;-70
2022/05/22 03:13:11;;;;;;;7.10;6.40;;;14.60;99.90;;;;;;5072492;28;20203;-70
2022/05/22 03:15:38;;;;;;;7.25;6.43;;;14.60;99.90;;;;;;5072775;28;20213;-70
2022/05/22 03:18:05;;;;;;;7.07;6.47;;;14.50;99.90;;;;;;5072714;28;20675;-70
2022/05/22 03:20:34;;;;;;;6.93;6.32;;;14.40;99.90;;;;;;5072837;28;20209;-70
2022/05/22 03:23:00;;;;;;;6.70;6.18;;;14.30;99.90;;;;;;5076016;28;20206;-70
2022/05/22 03:25:27;;;;;;;7.95;7.18;;;14.20;99.90;;;;;;5076552;28;20572;-70
2022/05/22 03:27:54;;;;;;;7.03;6.43;;;14.10;99.90;;;;;;5076457;28;20253;-70
2022/05/22 03:30:21;;;;;;;6.60;6.00;;;14.10;99.90;;;;;;5076419;28;20210;-70
2022/05/22 03:32:48;;;;;;;6.53;6.00;;;14.10;99.90;;;;;;5076176;28;20202;-70
2022/05/22 03:35:15;;;;;;;6.85;6.13;;;14.20;99.90;;;;;;5076214;28;20223;-70
2022/05/22 03:37:43;;;;;;;6.15;5.63;;;14.40;99.90;;;;;;5075969;28;20705;-70
2022/05/22 03:40:13;;;;;;;6.22;5.63;;;14.40;99.90;;;;;;5076267;28;20210;-70
2022/05/22 03:42:39;;;;;;;5.70;5.20;;;14.40;99.90;;;;;;5076085;28;20211;-70
2022/05/22 03:45:07;;;;;;;6.63;5.93;;;14.50;99.90;;;;;;5076191;28;20196;-70
2022/05/22 03:47:34;;;;;;;6.70;6.10;;;14.50;99.90;;;;;;5076017;28;20223;-70
2022/05/22 03:50:04;;;;;;;7.60;6.90;;;14.40;99.90;;;;;;5075673;28;20585;-70
2022/05/22 03:52:33;;;;;;;5.88;5.30;;;14.50;99.90;;;;;;5075827;28;20212;-70
2022/05/22 03:55:01;;;;;;;6.70;6.10;;;14.50;99.90;;;;;;5075749;28;20634;-70
2022/05/22 03:57:28;;;;;;;7.13;5.63;;;14.50;99.90;;;;;;5076115;28;20309;-70
2022/05/22 03:59:55;;;;;;;6.47;5.88;;;14.50;99.90;;;;;;5075935;28;20225;-70
2022/05/22 04:02:22;;;;;;;7.10;6.40;;;14.40;99.90;;;;;;5075450;28;20211;-70
2022/05/22 04:04:48;;;;;;;6.90;6.30;;;14.20;99.90;;;;;;5075802;28;20203;-70
2022/05/22 04:07:16;;;;;;;6.95;6.25;;;14.20;99.90;;;;;;5075473;28;20219;-70
2022/05/22 04:09:43;;;;;;;7.28;6.47;;;14.20;99.90;;;;;;5075740;28;20204;-70
2022/05/22 04:12:13;;;;;;;6.78;6.18;;;14.30;99.90;;;;;;5075541;28;20215;-70
2022/05/22 04:14:40;;;;;;;7.20;6.50;;;14.30;99.90;;;;;;5075540;28;20577;-70
2022/05/22 04:17:07;;;;;;;6.95;6.35;;;14.30;99.90;;;;;;5075381;28;20313;-70
2022/05/22 04:19:34;;;;;;;8.82;7.07;;;14.40;99.90;;;;;;5075939;28;20290;-70
2022/05/22 04:22:00;;;;;;;7.40;6.70;;;14.10;99.90;;;;;;5075536;28;20203;-70
2022/05/22 04:27:13;;;;;;;7.00;6.38;;;14.10;99.90;;;;;;5075237;28;20288;-70
2022/05/22 04:29:41;;;;;;;6.68;5.97;;;14.20;99.90;;;;;;5075361;28;20202;-70
2022/05/22 04:32:08;;;;;;;7.70;6.30;;;14.20;99.90;;;;;;5074932;28;20599;-69
2022/05/22 04:34:35;;;;;;;7.47;6.78;;;14.10;99.90;;;;;;5074523;28;20720;-70
2022/05/22 04:37:02;;;;;;;6.50;6.00;;;14.10;99.90;;;;;;5075124;28;20223;-70
2022/05/22 04:39:28;;;;;;;6.90;6.20;;;14.10;99.90;;;;;;5074925;28;20210;-70
2022/05/22 04:41:55;;;;;;;7.55;6.90;;;14.10;99.90;;;;;;5075047;28;20554;-70
2022/05/22 04:44:26;;;;;;;6.75;6.15;;;14.10;99.90;;;;;;5074885;28;20249;-70
2022/05/22 04:46:53;;;;;;;7.18;6.57;;;14.10;99.90;;;;;;5074671;28;20732;-70
2022/05/22 04:49:20;;;;;;;7.00;6.40;;;14.20;99.90;;;;;;5074814;28;20229;-70
2022/05/22 04:51:46;;;;;;;6.38;5.80;;;14.10;99.90;;;;;;5074869;28;20290;-70
2022/05/22 04:54:13;;;;;;;6.95;6.35;;;14.10;99.90;;;;;;5074275;28;20229;-70
2022/05/22 04:56:40;;;;;;;7.30;6.70;;;14.20;99.90;;;;;;5074803;28;20313;-70
2022/05/22 04:59:07;;;;;;;8.32;7.65;;;14.20;99.90;;;;;;5074529;28;20772;-70
2022/05/22 05:01:35;;;;;;;7.72;6.70;;;14.20;99.90;;;;;;5074681;28;20297;-70
2022/05/22 05:04:02;;;;;;;7.65;6.95;;;14.00;99.90;;;;;;5074461;28;20237;-70
2022/05/22 05:06:30;;;;;;;7.53;6.82;;;13.90;99.90;;;;;;5074497;28;20222;-70
2022/05/22 05:08:57;;;;;;;6.80;6.20;;;14.00;99.90;;;;;;5074542;28;20206;-70
2022/05/22 05:11:24;;;;;;;6.63;6.03;;;14.10;99.90;;;;;;5074189;28;20294;-70
2022/05/22 05:13:51;;;;;;;7.15;6.30;;;14.20;99.90;;;;;;5074284;28;20242;-70
2022/05/22 05:16:17;;;;;;;7.88;6.80;;;14.30;99.90;;;;;;5074287;28;20638;-70
2022/05/22 05:18:45;;;;;;;7.15;6.45;;;14.40;99.90;;;;;;5074434;28;20203;-70
2022/05/22 05:21:14;;;;;;;8.43;6.50;;;14.40;99.90;;;;;;5074309;28;20299;-70
2022/05/22 05:23:42;;;;;;;6.88;6.25;;;14.50;99.90;;;;;;5073882;28;20215;-70
2022/05/22 05:26:09;;;;;;;7.68;6.60;;;14.60;99.90;;;;;;5073896;28;20230;-70
2022/05/22 05:28:36;;;;;;;6.50;6.00;;;14.70;99.90;;;;;;5074205;28;20204;-70
2022/05/22 05:31:04;;;;;;;7.03;6.32;;;14.70;99.90;;;;;;5074008;28;20290;-70
2022/05/22 05:33:32;;;;;;;6.75;6.13;;;14.80;99.90;;;;;;5073701;28;20697;-70
2022/05/22 05:36:00;;;;;;;6.38;5.78;;;14.80;99.90;;;;;;5073930;28;20786;-70
2022/05/22 05:38:27;;;;;;;6.55;5.97;;;14.70;99.90;;;;;;5074013;28;20201;-70
2022/05/22 05:40:55;;;;;;;7.28;6.65;;;14.80;99.90;;;;;;5073787;28;20212;-70
2022/05/22 05:43:22;;;;;;;6.20;5.70;;;14.80;99.90;;;;;;5073595;28;20666;-70
2022/05/22 05:45:50;;;;;;;6.10;5.60;;;14.80;99.90;;;;;;5073074;28;20286;-70
2022/05/22 05:48:17;;;;;;;6.47;5.97;;;14.90;99.90;;;;;;5073959;28;20209;-70
2022/05/22 05:50:44;;;;;;;7.03;6.38;;;15.00;99.90;;;;;;5073813;28;20244;-70
2022/05/22 05:53:13;;;;;;;6.15;5.65;;;15.10;99.90;;;;;;5073523;28;20200;-70
2022/05/22 05:55:40;;;;;;;5.93;5.43;;;15.10;99.90;;;;;;5073694;28;20229;-70
2022/05/22 05:58:07;;;;;;;6.35;5.65;;;15.00;99.90;;;;;;5073521;28;20300;-70
2022/05/22 06:00:33;;;;;;;6.10;5.53;;;15.10;99.90;;;;;;5073756;28;20207;-70
2022/05/22 06:03:01;;;;;;;6.05;5.50;;;15.20;99.90;;;;;;5073384;28;20548;-70
2022/05/22 06:05:28;;;;;;;6.32;5.20;;;15.30;99.90;;;;;;5073680;28;20295;-70
2022/05/22 06:07:54;;;;;;;6.38;5.78;;;15.40;99.90;;;;;;5073670;28;20315;-70
2022/05/22 06:10:23;;;;;;;8.32;5.80;;;15.40;99.90;;;;;;5073632;28;20204;-70
2022/05/22 06:12:50;;;;;;;6.32;5.82;;;15.30;99.90;;;;;;5073449;28;20630;-70
2022/05/22 06:15:17;;;;;;;5.70;5.20;;;15.20;99.90;;;;;;5073427;28;20224;-70
2022/05/22 06:17:46;;;;;;;6.90;6.22;;;15.20;99.90;;;;;;5073444;28;20325;-70
2022/05/22 06:20:17;;;;;;;6.30;5.70;;;15.20;99.90;;;;;;5073261;28;20204;-70
2022/05/22 06:22:45;;;;;;;5.45;5.05;;;15.20;99.90;;;;;;5073295;28;20584;-70
2022/05/22 06:25:14;;;;;;;6.20;5.70;;;15.20;99.90;;;;;;5073496;28;20567;-70
2022/05/22 06:27:44;;;;;;;6.35;5.75;;;15.30;99.90;;;;;;5073465;28;20231;-70
2022/05/22 06:30:13;;;;;;;6.20;5.60;;;15.40;99.90;;;;;;5073336;28;20234;-70
2022/05/22 06:32:41;;;;;;;5.88;5.35;;;15.50;99.90;;;;;;5073262;28;20219;-70
2022/05/22 06:35:09;;;;;;;6.32;5.72;;;15.70;99.90;;;;;;5073116;28;20230;-70
2022/05/22 06:37:37;;;;;;;5.78;5.38;;;15.70;99.90;;;;;;5073677;28;20564;-70
2022/05/22 06:40:05;;;;;;;6.03;4.95;;;15.80;99.90;;;;;;5073341;28;20221;-70
2022/05/22 06:42:34;;;;;;;5.53;5.05;;;15.90;99.90;;;;;;5073166;28;20618;-70
2022/05/22 06:45:05;;;;;;;6.00;5.60;;;16.00;99.90;;;;;;5073046;28;20686;-70
2022/05/22 06:47:34;;;;;;;5.70;5.00;;;16.10;99.90;;;;;;5073460;28;20320;-70
2022/05/22 06:50:03;;;;;;;5.88;5.38;;;16.30;99.90;;;;;;5073230;28;20206;-70
2022/05/22 06:52:31;;;;;;;4.95;4.60;;;16.30;99.90;;;;;;5073015;28;20202;-70
2022/05/22 06:54:58;;;;;;;5.43;4.93;;;16.40;99.90;;;;;;5073037;28;20229;-70
2022/05/22 06:57:25;;;;;;;5.35;4.95;;;16.50;99.90;;;;;;5075665;28;20283;-70
2022/05/22 06:59:55;;;;;;;6.60;4.55;;;16.70;99.90;;;;;;5076799;28;20205;-70
2022/05/22 07:02:24;;;;;;;5.63;5.18;;;17.10;99.90;;;;;;5076837;28;20205;-70
2022/05/22 07:04:51;;;;;;;5.40;4.90;;;17.20;99.90;;;;;;5076903;28;20282;-70
2022/05/22 07:07:18;;;;;;;5.47;4.97;;;17.20;99.90;;;;;;5076760;28;20718;-70
2022/05/22 07:09:45;;;;;;;5.40;4.53;;;17.40;99.90;;;;;;5076826;28;20323;-70
2022/05/22 07:12:14;;;;;;;4.70;4.20;;;17.60;99.90;;;;;;5076627;28;20202;-70
2022/05/22 07:14:40;;;;;;;4.65;4.25;;;17.90;99.90;;;;;;5076688;28;20251;-70
2022/05/22 07:17:09;;;;;;;4.38;4.07;;;18.20;99.90;;;;;;5076696;28;20226;-70
2022/05/22 07:19:37;;;;;;;4.88;4.47;;;18.30;99.90;;;;;;5076668;28;20203;-70
2022/05/22 07:22:05;;;;;;;5.70;5.30;;;18.20;99.90;;;;;;5076641;28;20210;-70
2022/05/22 07:24:33;;;;;;;5.32;4.90;;;18.30;99.90;;;;;;5076593;28;20229;-70
2022/05/22 07:27:00;;;;;;;4.95;4.20;;;18.30;99.90;;;;;;5076196;28;20309;-70
2022/05/22 07:29:27;;;;;;;4.47;4.13;;;18.40;99.90;;;;;;5076305;28;20253;-70
2022/05/22 07:31:56;;;;;;;5.15;4.75;;;18.50;99.90;;;;;;5076436;28;20204;-70
2022/05/22 07:34:24;;;;;;;4.63;4.32;;;18.60;99.90;;;;;;5076140;28;20206;-70
2022/05/22 07:36:56;;;;;;;4.50;4.20;;;18.60;99.90;;;;;;5076221;28;20234;-70
2022/05/22 07:39:23;;;;;;;4.30;3.90;;;18.90;99.90;;;;;;5076390;28;20213;-70
2022/05/22 07:41:50;;;;;;;4.40;4.00;;;19.30;99.90;;;;;;5076208;28;20439;-70
2022/05/22 07:44:17;;;;;;;4.50;4.10;;;19.70;99.90;;;;;;5075903;28;20544;-70
2022/05/22 07:46:44;;;;;;;4.40;4.00;;;20.60;99.70;;;;;;5076105;28;20468;-70
2022/05/22 07:50:16;;;;;;;4.13;3.83;;;21.70;97.90;;;;;;5076197;28;20813;-70
2022/05/22 07:52:04;;;;;;;4.37;3.97;;;22.00;96.10;;;;;;5075618;28;20444;-70
2022/05/22 07:54:33;;;;;;;4.57;4.17;;;22.10;94.30;;;;;;5075828;28;20484;-70
2022/05/22 07:57:00;;;;;;;3.97;3.63;;;22.00;93.60;;;;;;5075787;28;20464;-70
2022/05/22 07:59:27;;;;;;;5.03;4.63;;;21.70;93.60;;;;;;5075724;28;20488;-70
2022/05/22 08:01:53;;;;;;;4.43;4.10;;;21.70;93.30;;;;;;5075783;28;20447;-70
2022/05/22 08:04:20;;;;;;;4.37;3.97;;;21.90;92.80;;;;;;5075743;28;20441;-70
2022/05/22 08:06:47;;;;;;;4.43;4.03;;;22.80;91.60;;;;;;5075815;28;20463;-70
2022/05/22 08:09:16;;;;;;;3.83;3.53;;;23.40;90.20;;;;;;5074673;28;20446;-70
2022/05/22 08:11:43;;;;;;;4.70;4.40;;;23.50;89.80;;;;;;5075704;28;20534;-71
2022/05/22 08:14:11;;;;;;;4.20;3.90;;;23.40;86.70;;;;;;5075472;28;20960;-70
2022/05/22 08:16:38;;;;;;;3.90;3.60;;;23.60;85.70;;;;;;5075376;28;21008;-71
2022/05/22 08:19:05;;;;;;;4.00;3.70;;;23.40;85.30;;;;;;5075583;28;20526;-71
2022/05/22 08:21:31;;;;;;;3.73;3.50;;;23.40;84.70;;;;;;5075574;28;20473;-71
2022/05/22 08:23:59;;;;;;;3.87;3.60;;;23.80;82.70;;;;;;5075192;28;20452;-70
2022/05/22 08:26:27;;;;;;;3.87;3.57;;;24.10;81.70;;;;;;5075215;28;20476;-71
2022/05/22 08:28:54;;;;;;;3.60;3.30;;;24.60;77.90;;;;;;5075450;28;20867;-71
2022/05/22 08:31:21;;;;;;;3.80;3.60;;;25.00;76.60;;;;;;5075284;28;20445;-71
2022/05/22 08:33:48;;;;;;;3.13;2.90;;;25.70;75.30;;;;;;5075141;28;20437;-71
2022/05/22 08:36:15;;;;;;;4.03;3.73;;;26.50;71.30;;;;;;5075084;28;20498;-71
2022/05/22 08:38:42;;;;;;;3.63;3.33;;;27.40;66.00;;;;;;5075456;28;20452;-71
2022/05/22 08:41:11;;;;;;;3.83;3.17;;;28.00;62.60;;;;;;5075079;28;20447;-71
2022/05/22 08:43:47;;;;;;;3.30;3.10;;;28.50;60.60;;;;;;5074741;28;20449;-71
2022/05/22 08:46:20;;;;;;;2.80;2.60;;;29.40;57.70;;;;;;5074988;28;20515;-71
2022/05/22 08:48:52;;;;;;;2.87;2.70;;;30.50;55.40;;;;;;5074769;28;20925;-71
2022/05/22 08:51:26;;;;;;;3.40;3.10;;;31.10;51.80;;;;;;5075012;28;20440;-71
2022/05/22 08:53:58;;;;;;;2.57;2.37;;;31.50;49.00;;;;;;5074422;28;20464;-71
2022/05/22 08:59:24;;;;;;;2.87;2.70;;;31.10;47.60;;;;;;5074860;28;20499;-71
2022/05/22 09:01:56;;;;;;;2.83;2.63;;;30.40;48.20;;;;;;5074689;28;20924;-70
2022/05/22 09:04:32;;;;;;;2.07;1.97;;;31.30;48.10;;;;;;5074459;28;20773;-71
2022/05/22 09:07:13;;;;;;;3.10;2.90;;;32.30;46.80;;;;;;5074724;28;20793;-71
2022/05/22 09:09:42;;;;;;;3.73;2.43;;;31.80;44.10;;;;;;5074464;28;20463;-71
2022/05/22 09:12:44;;;;;;;2.93;2.73;;;31.70;45.20;;;;;;5074248;28;20537;-71
2022/05/22 09:15:17;;;;;;;2.87;2.67;;;30.80;45.20;;;;;;5063898;28;20483;-70
2022/05/22 09:17:53;;;;;;;2.27;2.17;;;30.40;46.20;;;;;;5074452;28;20475;-71
2022/05/22 09:20:22;;;;;;;2.60;2.40;;;31.50;46.20;;;;;;5074606;28;20443;-71
2022/05/22 09:23:05;;;;;;;2.60;2.50;;;32.10;45.80;;;;;;5074133;28;20441;-71
2022/05/22 09:25:42;;;;;;;2.20;2.10;;;32.80;44.00;;;;;;5074296;28;20494;-71
2022/05/22 09:28:19;;;;;;;2.30;2.20;;;33.00;43.40;;;;;;5074025;28;20425;-71
2022/05/22 09:30:56;;;;;;;3.47;1.90;;;32.80;42.80;;;;;;5074248;28;20433;-71
2022/05/22 09:33:29;;;;;;;2.53;2.33;;;33.80;43.10;;;;;;5073853;28;20449;-72
2022/05/22 09:36:08;;;;;;;2.70;2.50;;;33.30;41.60;;;;;;5073896;28;21072;-71
2022/05/22 09:38:53;;;;;;;2.43;2.33;;;32.20;41.20;;;;;;5074249;28;20779;-71
2022/05/22 09:41:31;;;;;;;2.40;2.20;;;31.60;43.80;;;;;;5074051;28;20488;-71
2022/05/22 09:44:30;;;;;;;2.57;2.37;;;32.80;42.30;;;;;;5073570;28;20448;-71
2022/05/22 09:47:27;;;;;;;2.60;2.50;;;32.90;41.80;;;;;;5058298;28;20556;-71
2022/05/22 09:50:20;;;;;;;2.77;2.57;;;32.20;43.10;;;;;;5074031;28;20977;-71
2022/05/22 09:52:53;;;;;;;2.70;2.50;;;32.40;46.50;;;;;;5073829;28;20440;-71
2022/05/22 09:55:33;;;;;;;2.53;2.43;;;31.90;42.70;;;;;;5073430;28;21024;-71
2022/05/22 09:58:24;;;;;;;2.50;2.30;;;31.90;42.90;;;;;;5074115;28;20465;-71
2022/05/22 10:00:58;;;;;;;2.70;2.60;;;31.70;44.60;;;;;;5073748;28;20441;-71
2022/05/22 10:03:36;;;;;;;2.77;2.57;;;32.40;43.00;;;;;;5073581;28;20444;-71
2022/05/22 10:06:14;;;;;;;2.73;2.53;;;33.10;41.60;;;;;;5073492;28;20548;-71
2022/05/22 10:08:53;;;;;;;2.40;2.20;;;33.80;42.00;;;;;;5073752;28;20440;-71
2022/05/22 10:11:26;;;;;;;2.00;1.90;;;33.50;39.90;;;;;;5073449;28;20476;-71
2022/05/22 10:14:12;;;;;;;2.70;2.50;;;32.70;41.00;;;;;;5073256;28;20449;-71
2022/05/22 10:16:45;;;;;;;2.50;2.40;;;32.00;42.20;;;;;;5073346;28;20487;-69
2022/05/22 10:19:27;;;;;;;2.50;2.40;;;32.10;42.70;;;;;;5073644;28;20780;-71
2022/05/22 10:22:01;;;;;;;3.40;2.53;;;32.10;42.40;;;;;;5073582;28;20791;-71
2022/05/22 10:24:46;;;;;;;2.60;2.40;;;32.70;41.90;;;;;;5073402;28;20786;-71
2022/05/22 10:27:30;;;;;;;2.97;2.77;;;32.50;41.30;;;;;;5073334;28;20471;-71
2022/05/22 10:30:00;;;;;;;2.60;2.50;;;32.60;41.90;;;;;;5073192;28;20915;-72
2022/05/22 10:32:32;;;;;;;2.97;2.77;;;32.60;42.90;;;;;;5076042;28;20453;-71
2022/05/22 10:35:08;;;;;;;2.43;2.13;;;33.10;40.80;;;;;;5077556;28;20445;-71
2022/05/22 10:37:42;;;;;;;2.73;2.53;;;33.40;40.90;;;;;;5077440;28;20584;-71
2022/05/22 10:40:14;;;;;;;2.60;2.50;;;33.10;40.20;;;;;;5077466;28;20447;-71
2022/05/22 10:42:45;;;;;;;2.40;2.30;;;33.10;41.90;;;;;;5077266;28;20455;-71
2022/05/22 10:45:20;;;;;;;2.37;2.27;;;33.30;41.50;;;;;;5077378;28;20437;-71
2022/05/22 10:47:47;;;;;;;2.30;2.20;;;32.90;41.60;;;;;;5077355;28;20522;-71
2022/05/22 10:50:23;;;;;;;3.03;2.83;;;32.80;41.50;;;;;;5077282;28;20440;-71
2022/05/22 10:52:50;;;;;;;2.77;2.57;;;31.70;43.80;;;;;;5076963;28;20455;-70
2022/05/22 10:55:30;;;;;;;3.03;2.83;;;30.80;43.50;;;;;;5076810;28;20453;-71
2022/05/22 10:57:59;;;;;;;2.70;2.53;;;29.80;45.00;;;;;;5077130;28;20481;-71
2022/05/22 11:00:27;;;;;;;3.20;3.00;;;28.80;46.60;;;;;;5077254;28;20534;-71
2022/05/22 11:02:54;;;;;;;2.93;2.73;;;28.20;47.80;;;;;;5076691;28;20924;-70
2022/05/22 11:05:26;;;;;;;2.93;2.70;;;27.70;49.30;;;;;;5076862;28;20456;-71
2022/05/22 11:07:54;;;;;;;3.07;2.77;;;27.20;49.60;;;;;;5076961;28;20472;-71
2022/05/22 11:10:25;;;;;;;3.00;2.80;;;27.00;50.80;;;;;;5076781;28;20449;-71
2022/05/22 11:13:04;;;;;;;3.20;3.00;;;27.10;50.20;;;;;;5076629;28;20451;-70
2022/05/22 11:15:33;;;;;;;2.90;2.70;;;26.90;51.40;;;;;;5076399;28;20441;-70
2022/05/22 11:18:08;;;;;;;2.90;2.70;;;26.90;51.80;;;;;;5076693;28;20501;-71
2022/05/22 11:20:41;;;;;;;3.50;3.17;;;26.60;53.50;;;;;;5076726;28;20606;-70
2022/05/22 11:23:33;;;;;;;3.07;2.83;;;26.30;52.90;;;;;;5076453;28;20488;-70
2022/05/22 11:26:11;;;;;;;3.30;3.10;;;26.30;53.10;;;;;;5076596;28;20441;-70
2022/05/22 11:28:55;;;;;;;3.30;3.10;;;26.40;53.60;;;;;;5076382;28;20481;-71
2022/05/22 11:31:36;;;;;;;2.57;2.37;;;26.20;53.40;;;;;;5076567;28;20531;-71
2022/05/22 11:34:26;;;;;;;3.03;2.83;;;26.30;52.70;;;;;;5076341;28;20452;-71
2022/05/22 11:37:03;;;;;;;4.10;3.50;;;26.60;52.00;;;;;;5076374;28;20488;-70
2022/05/22 11:39:42;;;;;;;2.90;2.70;;;26.60;51.90;;;;;;5076376;28;20475;-71
2022/05/22 11:42:19;;;;;;;3.40;3.20;;;26.40;52.30;;;;;;5075803;28;20790;-71
2022/05/22 11:45:12;;;;;;;3.07;2.87;;;26.70;52.20;;;;;;5075554;28;20445;-70
2022/05/22 11:48:05;;;;;;;3.33;3.03;;;26.80;53.10;;;;;;5076233;28;20463;-71
2022/05/22 11:50:38;;;;;;;3.40;3.10;;;26.90;51.70;;;;;;5073909;28;20460;-71
2022/05/22 11:53:27;;;;;;;3.37;3.17;;;26.90;50.60;;;;;;5075709;28;20459;-71
2022/05/22 11:56:18;;;;;;;2.87;2.67;;;26.60;51.70;;;;;;5075840;28;20858;-70
2022/05/22 11:58:51;;;;;;;3.10;2.90;;;26.40;54.20;;;;;;5076030;28;20442;-71
2022/05/22 12:01:23;;;;;;;3.17;2.97;;;26.40;52.80;;;;;;5075893;28;20456;-71
2022/05/22 12:04:23;;;;;;;2.90;2.67;;;26.20;53.90;;;;;;5075501;28;20488;-70
2022/05/22 12:07:03;;;;;;;4.30;3.07;;;26.30;54.00;;;;;;5075620;28;20468;-70
2022/05/22 12:09:41;;;;;;;3.50;3.20;;;26.30;52.60;;;;;;5075884;28;20439;-71
2022/05/22 12:12:13;;;;;;;2.70;2.50;;;26.30;51.90;;;;;;5075579;28;20459;-71
2022/05/22 12:14:49;;;;;;;3.47;3.17;;;26.30;54.10;;;;;;5075570;28;20947;-71
2022/05/22 12:17:21;;;;;;;3.80;3.20;;;26.50;54.90;;;;;;5075771;28;20487;-71
2022/05/22 12:19:54;;;;;;;3.50;3.00;;;26.40;53.00;;;;;;5075609;28;20463;-70
2022/05/22 12:23:07;;;;;;;3.27;3.07;;;26.40;53.70;;;;;;5075379;28;20794;-71
2022/05/22 12:25:15;;;;;;;3.50;3.20;;;26.50;53.70;;;;;;5075127;28;20437;-70
2022/05/22 12:27:42;;;;;;;3.13;2.90;;;26.30;52.40;;;;;;5075473;28;20553;-71
2022/05/22 12:30:14;;;;;;;3.13;2.83;;;26.00;54.20;;;;;;5075396;28;20441;-71
2022/05/22 12:32:56;;;;;;;2.70;2.50;;;26.00;55.20;;;;;;5075060;28;20445;-71
2022/05/22 12:35:25;;;;;;;2.60;2.50;;;26.00;54.80;;;;;;5075352;28;20498;-71
2022/05/22 12:37:56;;;;;;;3.10;2.90;;;26.20;55.10;;;;;;5075258;28;20527;-71
2022/05/22 12:40:38;;;;;;;3.10;2.90;;;26.30;54.40;;;;;;5075128;28;20445;-71
2022/05/22 12:43:07;;;;;;;2.93;2.73;;;26.40;54.30;;;;;;5075714;28;20451;-71
2022/05/22 12:45:35;;;;;;;2.80;2.60;;;26.60;53.70;;;;;;5075945;28;20468;-71
2022/05/22 12:48:24;;;;;;;3.00;2.70;;;26.70;52.80;;;;;;5075561;28;20465;-71
2022/05/22 12:50:54;;;;;;;4.63;3.17;;;26.70;51.60;;;;;;5075037;28;20445;-70
2022/05/22 12:53:27;;;;;;;2.77;2.63;;;26.70;52.10;;;;;;5074593;28;20461;-70
2022/05/22 12:55:56;;;;;;;2.77;2.67;;;26.70;53.60;;;;;;5074326;28;20465;-70
2022/05/22 12:58:34;;;;;;;3.33;3.10;;;26.70;51.10;;;;;;5074885;28;20476;-70
2022/05/22 13:01:01;;;;;;;5.63;4.83;;;26.60;52.50;;;;;;5074889;28;20795;-70
2022/05/22 13:03:35;;;;;;;3.30;3.10;;;26.60;52.60;;;;;;5074593;28;20476;-71
2022/05/22 13:06:05;;;;;;;3.70;3.40;;;26.50;52.50;;;;;;5074530;28;20433;-71
2022/05/22 13:08:39;;;;;;;3.07;2.87;;;26.60;52.10;;;;;;5074602;28;20445;-71
2022/05/22 13:11:12;;;;;;;2.80;2.60;;;26.50;52.80;;;;;;5074549;28;20449;-70